Mattala Rajapaksa International Airport

Airport
ICAO code: 
VCRI
IATA Code: 
HRI
Summary
ICAO Region: 
APAC
Territory: 
Location: 
Mattala, Southern Province
Serving: 
Hambantota
Elevation: 
159 ft
Coordinates: 
Aerial View: 
6° 17' 20.004" N, 81° 7' 24.996" E
Metar
Observation
VCRI 220010Z VRB02KT 6000 FEW018 20/20 Q1010 NOSIG
Station
Hambantota International Airport
Date/Time
2022-01-22 00:10:00
Wind speed
02 kts
Lowest cloud amount
few clouds
Temperature
20°C
Dew point
20°C
Humidity
100%
QNH
1010 hPa
Weather condition
n/a

Mattala Rajapaksa International Airport is an international airport serving southeast Sri Lanka.

Climatology

Tropical savanna climate (Köppen climate classification Aw)

Airport map: 
Aerial View: 

SKYbrary Partners:

Safety knowledge contributed by: